Time;durP1;ratioP1;P1;durP2;ratioP2;P2;SDS_P1;SDS_P2;PMS_P1;PMS_P2;Temp;Humidity;BMP_temperature;BMP_pressure;BME280_temperature;BME280_humidity;BME280_pressure;Samples;Min_cycle;Max_cycle;Signal;HPM_P1;HPM_P2
2022/06/10 00:00:50;;;;;;;6.93;3.75;;;;;;;11.36;92.91;102019.16;5011764;28;20538;-66
2022/06/10 00:03:17;;;;;;;7.35;4.32;;;;;;;11.38;93.10;102022.59;5011299;28;20092;-67
2022/06/10 00:05:47;;;;;;;4.50;2.90;;;;;;;11.41;92.96;102017.13;4994330;28;20025;-65
2022/06/10 00:08:17;;;;;;;11.45;4.10;;;;;;;11.56;92.38;102020.00;4991609;28;20038;-65
2022/06/10 00:10:45;;;;;;;8.20;3.70;;;;;;;11.58;92.98;102024.31;5009721;28;20068;-65
2022/06/10 00:13:12;;;;;;;8.95;4.22;;;;;;;11.74;93.15;102027.09;5011763;28;20131;-65
2022/06/10 00:15:38;;;;;;;14.50;5.13;;;;;;;11.66;93.85;102021.28;4993811;28;20037;-64
2022/06/10 00:18:03;;;;;;;8.05;4.30;;;;;;;11.57;94.35;102016.38;5011791;28;20106;-65
2022/06/10 00:20:31;;;;;;;12.20;5.00;;;;;;;11.61;94.26;102020.66;4988422;28;20033;-65
2022/06/10 00:22:57;;;;;;;15.07;5.20;;;;;;;11.55;94.61;102016.47;4986086;28;20152;-66
2022/06/10 00:25:23;;;;;;;17.40;5.22;;;;;;;11.51;95.10;102025.56;5011464;28;20037;-66
2022/06/10 00:27:49;;;;;;;9.55;5.28;;;;;;;11.47;94.98;102015.97;4994780;28;20275;-67
2022/06/10 00:30:16;;;;;;;12.68;4.75;;;;;;;11.55;94.79;102015.59;5011462;28;20099;-64
2022/06/10 00:32:42;;;;;;;13.65;5.07;;;;;;;11.53;94.90;102012.97;5004105;28;20044;-65
2022/06/10 00:35:08;;;;;;;7.18;4.82;;;;;;;11.49;94.65;102013.22;4992771;28;20396;-65
2022/06/10 00:37:34;;;;;;;10.65;5.10;;;;;;;11.46;95.29;102011.56;5011112;28;20073;-65
2022/06/10 00:39:59;;;;;;;11.63;5.45;;;;;;;11.38;95.08;102011.06;5011779;28;20040;-65
2022/06/10 00:42:25;;;;;;;11.82;4.72;;;;;;;11.58;95.34;102008.28;5010950;28;20032;-65
2022/06/10 00:44:53;;;;;;;11.45;5.28;;;;;;;11.46;95.19;102008.91;5011869;28;20842;-65
2022/06/10 00:47:24;;;;;;;10.07;4.97;;;;;;;11.44;94.96;102007.22;4996047;28;20046;-65
2022/06/10 00:50:30;;;;;;;9.35;4.28;;;;;;;11.44;95.62;102008.09;4992896;28;20056;-65
2022/06/10 00:53:00;;;;;;;21.80;5.13;;;;;;;11.28;95.71;102007.09;4994162;28;20044;-65
2022/06/10 00:55:30;;;;;;;9.02;5.03;;;;;;;11.50;95.60;102006.94;5009967;28;20050;-65
2022/06/10 00:58:40;;;;;;;10.35;4.85;;;;;;;11.48;95.20;102015.00;5010068;28;20041;-68
2022/06/10 01:01:07;;;;;;;10.25;4.93;;;;;;;11.51;94.70;102006.88;4984603;28;20046;-65
2022/06/10 01:03:33;;;;;;;8.10;4.70;;;;;;;11.50;95.07;102012.28;5011179;28;20753;-65
2022/06/10 01:05:58;;;;;;;12.30;5.05;;;;;;;11.37;94.57;102012.88;4999577;28;20048;-65
2022/06/10 01:08:24;;;;;;;9.15;4.95;;;;;;;11.39;95.53;102010.13;5002287;28;20498;-65
2022/06/10 01:11:01;;;;;;;11.55;4.80;;;;;;;11.40;95.12;102001.19;5011080;28;20094;-65
2022/06/10 01:13:41;;;;;;;12.00;4.78;;;;;;;11.38;95.48;102001.25;5003977;28;20041;-65
2022/06/10 01:16:23;;;;;;;7.78;4.65;;;;;;;11.40;95.07;102010.06;5004799;28;20037;-65
2022/06/10 01:18:59;;;;;;;12.60;5.20;;;;;;;11.19;96.31;102004.84;4998527;28;20077;-65
2022/06/10 01:22:00;;;;;;;13.18;4.88;;;;;;;11.13;97.25;102004.22;5009575;28;20980;-65
2022/06/10 01:24:48;;;;;;;11.77;5.38;;;;;;;11.16;97.28;102005.88;5008964;28;20116;-65
2022/06/10 01:30:14;;;;;;;12.15;4.85;;;;;;;11.01;98.15;102006.59;5010280;28;20042;-65
2022/06/10 01:33:28;;;;;;;12.63;5.70;;;;;;;11.00;98.22;102011.06;4993137;28;20103;-65
2022/06/10 01:35:53;;;;;;;8.43;5.47;;;;;;;10.94;98.75;102002.47;4932401;28;20092;-65
2022/06/10 01:38:28;;;;;;;10.40;5.13;;;;;;;10.85;98.15;102003.78;4947963;28;20807;-65
2022/06/10 01:41:20;;;;;;;9.32;5.22;;;;;;;10.91;98.30;102002.63;4953090;28;20043;-65
2022/06/10 01:44:16;;;;;;;9.45;5.47;;;;;;;10.83;97.68;102006.50;4942784;28;20050;-65
2022/06/10 01:46:51;;;;;;;17.05;5.88;;;;;;;10.82;97.97;101998.56;4952787;28;20053;-66
2022/06/10 01:49:24;;;;;;;11.65;5.43;;;;;;;10.82;97.51;101999.44;4951114;28;20831;-65
2022/06/10 01:51:58;;;;;;;13.45;6.18;;;;;;;10.80;97.53;101995.13;4935972;28;20038;-65
2022/06/10 01:54:31;;;;;;;13.23;5.05;;;;;;;10.94;97.38;101991.78;4935407;28;20459;-65
2022/06/10 01:57:00;;;;;;;8.38;5.38;;;;;;;10.82;97.04;102001.25;4951767;28;20050;-66
2022/06/10 01:59:57;;;;;;;12.93;5.72;;;;;;;10.73;98.46;101999.84;4935783;28;20133;-64
2022/06/10 02:02:27;;;;;;;14.63;5.68;;;;;;;10.73;98.28;101999.84;4950966;28;20150;-66
2022/06/10 02:04:58;;;;;;;11.60;5.75;;;;;;;10.76;98.21;102007.72;4952611;28;20054;-65
2022/06/10 02:07:37;;;;;;;12.65;5.70;;;;;;;10.68;98.31;102003.66;4952438;28;20185;-65
2022/06/10 02:10:19;;;;;;;13.10;5.43;;;;;;;10.77;97.85;102008.59;4991032;28;20126;-65
2022/06/10 02:12:51;;;;;;;7.55;5.05;;;;;;;10.76;97.76;102006.88;4996515;28;20092;-66
2022/06/10 02:15:17;;;;;;;;;;;;;;;10.79;97.34;102006.69;4996379;28;20091;-66
2022/06/10 02:17:57;;;;;;;11.32;5.80;;;;;;;10.75;97.79;102003.34;5014503;28;20828;-66
2022/06/10 02:20:28;;;;;;;17.35;6.00;;;;;;;10.73;98.31;102007.84;4999837;28;20033;-66
2022/06/10 02:22:57;;;;;;;12.65;5.60;;;;;;;10.72;98.10;102007.94;5012977;28;20855;-66
2022/06/10 02:25:27;;;;;;;13.98;6.25;;;;;;;10.75;98.03;102005.13;5013314;28;20481;-66
2022/06/10 02:27:59;;;;;;;13.80;6.40;;;;;;;10.79;97.86;102007.59;4996386;28;20037;-67
2022/06/10 02:30:38;;;;;;;13.48;6.43;;;;;;;10.87;97.27;102008.09;5014052;28;20047;-66
2022/06/10 02:33:04;;;;;;;16.27;5.63;;;;;;;10.85;97.59;102017.13;4995806;28;20048;-65
2022/06/10 02:35:42;;;;;;;11.20;6.45;;;;;;;10.87;97.24;102010.75;5014220;28;20153;-65
2022/06/10 02:38:32;;;;;;;13.30;6.88;;;;;;;10.95;96.87;102012.22;5014191;28;20049;-66
2022/06/10 02:41:15;;;;;;;19.95;6.57;;;;;;;10.95;97.07;102017.56;5002615;28;20140;-66
2022/06/10 02:44:05;;;;;;;21.77;7.75;;;;;;;10.90;97.53;102017.78;4996970;28;20072;-66
2022/06/10 02:46:38;;;;;;;11.25;6.65;;;;;;;10.99;97.35;102020.00;4996123;28;20053;-66
2022/06/10 02:49:09;;;;;;;17.88;7.95;;;;;;;10.96;97.05;102019.28;5013988;28;20609;-66
2022/06/10 02:51:35;;;;;;;16.55;6.55;;;;;;;10.96;97.18;102017.50;5013132;28;20041;-66
2022/06/10 02:54:03;;;;;;;14.05;6.80;;;;;;;10.97;96.91;102018.34;4996087;28;20113;-66
2022/06/10 02:56:30;;;;;;;17.10;6.80;;;;;;;10.98;97.05;102015.59;5014650;28;20109;-66
2022/06/10 03:02:15;;;;;;;15.73;7.53;;;;;;;11.22;96.59;102020.75;5014441;28;20044;-67
2022/06/10 03:05:14;;;;;;;12.75;7.97;;;;;;;11.38;96.42;102019.94;5001248;28;20049;-66
2022/06/10 03:08:03;;;;;;;15.35;6.65;;;;;;;11.48;96.25;102023.03;5014603;28;20747;-65
2022/06/10 03:10:35;;;;;;;15.75;7.35;;;;;;;11.73;96.23;102020.03;5011680;28;20148;-65
2022/06/10 03:13:08;;;;;;;16.92;7.32;;;;;;;11.92;95.73;102012.00;5012671;28;20151;-65
2022/06/10 03:16:00;;;;;;;20.45;7.68;;;;;;;12.03;95.80;102009.66;4995121;28;20041;-66
2022/06/10 03:18:48;;;;;;;16.30;8.60;;;;;;;12.22;95.49;102014.06;5009872;28;20154;-66
2022/06/10 03:21:27;;;;;;;18.73;7.68;;;;;;;12.39;94.36;102014.91;5011738;28;20056;-65
2022/06/10 03:23:58;;;;;;;13.88;7.80;;;;;;;12.36;93.70;102016.91;4999852;28;20037;-66
2022/06/10 03:26:39;;;;;;;15.55;7.47;;;;;;;12.44;94.19;102014.66;5011042;28;20857;-65
2022/06/10 03:29:39;;;;;;;17.27;7.68;;;;;;;12.63;93.64;102015.44;5000839;28;20419;-66
2022/06/10 03:32:27;;;;;;;13.80;7.63;;;;;;;12.69;93.94;102015.09;4994427;28;20041;-66
2022/06/10 03:34:58;;;;;;;15.13;7.25;;;;;;;12.83;93.54;102017.03;5012025;28;20134;-66
2022/06/10 03:37:24;;;;;;;15.85;7.55;;;;;;;12.95;92.38;102018.19;5012982;28;20073;-65
2022/06/10 03:39:55;;;;;;;15.43;7.55;;;;;;;13.07;91.93;102019.34;5013865;28;20135;-65
2022/06/10 03:42:23;;;;;;;20.30;7.22;;;;;;;13.06;91.71;102025.66;5012774;28;20034;-67
2022/06/10 03:44:52;;;;;;;22.70;7.03;;;;;;;13.04;92.01;102014.13;5012969;28;20053;-67
2022/06/10 03:47:25;;;;;;;23.13;8.07;;;;;;;13.03;91.54;102012.41;4973715;28;20049;-66
2022/06/10 03:49:59;;;;;;;16.98;7.38;;;;;;;13.04;92.27;102015.00;4992756;28;20030;-67
2022/06/10 03:52:30;;;;;;;19.10;6.88;;;;;;;13.10;92.34;102017.38;4992177;28;20037;-67
2022/06/10 03:54:56;;;;;;;20.77;7.18;;;;;;;13.12;92.31;102015.44;5010723;28;20045;-67
2022/06/10 03:57:21;;;;;;;19.67;7.55;;;;;;;13.25;91.68;102014.78;4984180;28;20053;-68
2022/06/10 03:59:47;;;;;;;20.02;7.45;;;;;;;13.20;92.32;102023.94;5009233;28;20107;-67
2022/06/10 04:02:13;;;;;;;18.83;6.95;;;;;;;13.21;92.64;102030.16;5010968;28;20033;-65
2022/06/10 04:04:39;;;;;;;15.60;7.65;;;;;;;13.21;92.92;102027.47;4994202;28;20807;-66
2022/06/10 04:07:06;;;;;;;19.55;7.00;;;;;;;13.29;92.18;102024.41;5011492;28;20037;-66
2022/06/10 04:09:32;;;;;;;19.05;7.32;;;;;;;13.37;92.19;102025.69;5010923;28;20033;-67
2022/06/10 04:11:58;;;;;;;17.23;7.13;;;;;;;13.44;92.43;102032.44;5011298;28;20450;-67
2022/06/10 04:14:24;;;;;;;16.63;7.63;;;;;;;13.41;91.46;102024.59;4992114;28;20052;-67
2022/06/10 04:16:50;;;;;;;18.92;7.85;;;;;;;13.49;91.76;102034.84;5011330;28;20036;-66
2022/06/10 04:19:16;;;;;;;10.80;6.72;;;;;;;13.53;91.30;102030.19;5010204;28;20407;-66
2022/06/10 04:21:42;;;;;;;17.13;7.25;;;;;;;13.51;91.99;102043.69;5011562;28;20029;-67
2022/06/10 04:24:07;;;;;;;14.77;7.53;;;;;;;13.53;92.89;102048.97;5011035;28;20726;-66
2022/06/10 04:26:33;;;;;;;32.95;8.32;;;;;;;13.61;91.44;102049.41;4994085;28;21105;-66
2022/06/10 04:28:59;;;;;;;17.02;7.53;;;;;;;13.65;91.38;102061.66;4994024;28;20148;-66
2022/06/10 04:31:24;;;;;;;21.20;7.68;;;;;;;13.63;92.09;102056.38;5011278;28;20080;-66
2022/06/10 04:33:49;;;;;;;28.33;8.02;;;;;;;13.74;91.13;102064.66;5011650;28;20046;-67
2022/06/10 04:36:18;;;;;;;17.90;7.55;;;;;;;13.80;89.74;102070.63;5009801;28;20644;-66
2022/06/10 04:38:44;;;;;;;17.23;6.97;;;;;;;13.82;90.10;102069.63;4995280;28;20037;-66
2022/06/10 04:41:11;;;;;;;27.75;6.60;;;;;;;13.83;89.53;102065.09;4984508;28;20771;-66
2022/06/10 04:43:38;;;;;;;19.67;6.57;;;;;;;13.85;89.35;102065.88;5006237;28;20030;-67
2022/06/10 04:46:06;;;;;;;16.35;5.40;;;;;;;13.82;89.05;102074.97;5007542;28;20066;-67
2022/06/10 04:48:32;;;;;;;14.52;5.95;;;;;;;13.81;90.63;102083.13;4999641;28;20118;-67
2022/06/10 04:50:58;;;;;;;15.13;6.03;;;;;;;13.88;90.57;102076.44;5001044;28;20049;-67
2022/06/10 04:53:24;;;;;;;16.55;5.80;;;;;;;13.93;90.69;102072.53;5011634;28;20061;-67
2022/06/10 04:55:50;;;;;;;13.65;5.63;;;;;;;13.96;90.19;102082.22;4998643;28;20836;-67
2022/06/10 04:58:16;;;;;;;18.95;6.20;;;;;;;14.04;90.32;102084.47;4991517;28;20749;-66
2022/06/10 05:00:47;;;;;;;16.35;6.07;;;;;;;13.93;92.61;102083.25;5009655;28;20075;-66
2022/06/10 05:03:15;;;;;;;20.27;5.32;;;;;;;13.99;93.57;102082.91;4991451;28;20041;-67
2022/06/10 05:05:41;;;;;;;15.40;5.88;;;;;;;13.94;95.24;102089.47;4977731;28;20060;-67
2022/06/10 05:08:08;;;;;;;19.90;5.18;;;;;;;13.88;96.49;102089.84;4996773;28;20125;-67
2022/06/10 05:10:34;;;;;;;26.60;5.28;;;;;;;13.92;98.68;102097.63;5008268;28;20367;-67
2022/06/10 05:12:59;;;;;;;23.30;5.05;;;;;;;13.91;100.00;102087.00;4990617;28;20826;-67
2022/06/10 05:15:28;;;;;;;16.13;5.35;;;;;;;13.94;100.00;102092.16;5006532;28;20768;-67
2022/06/10 05:17:56;;;;;;;19.52;6.45;;;;;;;13.86;100.00;102091.75;5010630;28;20052;-67
2022/06/10 05:20:25;;;;;;;22.52;6.70;;;;;;;13.91;100.00;102092.38;4990323;28;20140;-68
2022/06/10 05:22:51;;;;;;;19.20;6.20;;;;;;;14.03;100.00;102090.78;5002594;28;20042;-68
2022/06/10 05:25:17;;;;;;;19.00;6.22;;;;;;;14.10;100.00;102089.47;5012712;28;20818;-66
2022/06/10 05:27:43;;;;;;;14.25;5.90;;;;;;;14.04;100.00;102093.38;4996561;28;20034;-66
2022/06/10 05:30:16;;;;;;;19.15;5.80;;;;;;;14.15;100.00;102095.41;4979448;28;20133;-67
2022/06/10 05:32:41;;;;;;;23.25;9.05;;;;;;;13.99;100.00;102085.59;5014388;28;20122;-66
2022/06/10 05:35:07;;;;;;;27.35;9.18;;;;;;;14.19;100.00;102087.09;4995683;28;20475;-67
2022/06/10 05:37:33;;;;;;;26.48;9.52;;;;;;;14.34;100.00;102090.72;5014202;28;20033;-65
2022/06/10 05:39:58;;;;;;;23.63;9.18;;;;;;;14.45;100.00;102082.88;4995195;28;20045;-67
2022/06/10 05:42:24;;;;;;;20.77;8.75;;;;;;;14.72;100.00;102079.53;4994904;28;20049;-68
2022/06/10 05:44:51;;;;;;;21.67;7.70;;;;;;;14.93;100.00;102070.16;4979849;28;20482;-66
2022/06/10 05:47:22;;;;;;;16.20;6.63;;;;;;;15.20;98.74;102078.28;4994524;28;20482;-67
2022/06/10 05:49:52;;;;;;;22.88;8.35;;;;;;;15.83;96.29;102071.59;5012193;28;20163;-67
2022/06/10 05:52:21;;;;;;;16.42;7.35;;;;;;;15.89;94.51;102075.72;5004545;28;20047;-67
2022/06/10 05:54:48;;;;;;;22.23;9.23;;;;;;;16.01;95.14;102074.88;5007007;28;20681;-67
2022/06/10 05:57:15;;;;;;;22.02;8.23;;;;;;;16.16;93.96;102073.84;5006266;28;20059;-67
2022/06/10 05:59:41;;;;;;;22.50;8.80;;;;;;;16.28;93.17;102064.13;4990571;28;20705;-66
2022/06/10 06:02:09;;;;;;;22.20;8.23;;;;;;;16.21;93.82;102077.09;4976877;28;20038;-68
2022/06/10 06:04:36;;;;;;;27.45;8.45;;;;;;;16.02;94.21;102079.31;5012335;28;20068;-67
2022/06/10 06:07:02;;;;;;;24.38;7.72;;;;;;;16.13;92.40;102071.41;5011830;28;20522;-67
2022/06/10 06:09:28;;;;;;;19.38;7.32;;;;;;;16.14;92.40;102070.41;4993785;28;20050;-68
2022/06/10 06:11:56;;;;;;;20.02;6.82;;;;;;;16.42;93.01;102080.19;5011657;28;20041;-67
2022/06/10 06:14:25;;;;;;;21.13;6.30;;;;;;;16.03;91.37;102078.34;5012777;28;20037;-68
2022/06/10 06:16:54;;;;;;;22.52;5.93;;;;;;;15.95;92.17;102081.53;5012889;28;20033;-67
2022/06/10 06:19:20;;;;;;;21.23;6.30;;;;;;;16.20;93.13;102086.16;4992779;28;20079;-67
2022/06/10 06:21:46;;;;;;;19.73;7.07;;;;;;;16.19;92.73;102083.56;5012007;28;20041;-68
2022/06/10 06:24:11;;;;;;;17.25;6.53;;;;;;;16.03;92.45;102081.91;4994513;28;20452;-67
2022/06/10 06:26:37;;;;;;;13.27;6.25;;;;;;;16.31;91.52;102089.00;5010313;28;20041;-68
2022/06/10 06:29:03;;;;;;;22.50;6.53;;;;;;;16.33;91.16;102085.34;5010834;28;20375;-67
2022/06/10 06:31:28;;;;;;;14.80;5.85;;;;;;;16.57;90.29;102081.84;4992712;28;20056;-67
2022/06/10 06:33:54;;;;;;;15.43;5.78;;;;;;;16.29;90.75;102074.78;4992073;28;20060;-67
2022/06/10 06:36:26;;;;;;;20.10;6.85;;;;;;;16.61;90.25;102081.59;5009623;28;20474;-67
2022/06/10 06:38:51;;;;;;;12.85;5.45;;;;;;;16.50;90.59;102083.22;4983319;28;20045;-67
2022/06/10 06:41:18;;;;;;;12.38;6.35;;;;;;;16.51;90.66;102082.22;5010518;28;20138;-67
2022/06/10 06:43:44;;;;;;;19.98;5.97;;;;;;;16.89;89.62;102077.91;4996689;28;20042;-67
2022/06/10 06:46:15;;;;;;;19.05;6.60;;;;;;;17.07;87.18;102073.91;5002485;28;20045;-64
2022/06/10 06:48:41;;;;;;;14.27;6.50;;;;;;;17.32;85.50;102079.28;4995539;28;20033;-65
2022/06/10 06:51:07;;;;;;;17.30;7.03;;;;;;;17.28;84.97;102083.16;4996450;28;20044;-66
2022/06/10 06:53:33;;;;;;;15.27;5.97;;;;;;;17.69;84.99;102086.50;5002986;28;20046;-67
2022/06/10 06:56:02;;;;;;;18.30;6.40;;;;;;;18.71;81.36;102077.94;5006872;28;20140;-67
2022/06/10 06:58:27;;;;;;;14.10;5.95;;;;;;;18.54;82.43;102081.91;5010477;28;20037;-66
2022/06/10 07:00:53;;;;;;;17.10;7.00;;;;;;;18.67;80.01;102081.81;5005054;28;20880;-66
2022/06/10 07:03:19;;;;;;;12.40;5.85;;;;;;;18.68;78.73;102081.75;4992186;28;20042;-67
2022/06/10 07:05:44;;;;;;;16.13;6.25;;;;;;;19.27;76.86;102084.22;4981600;28;20025;-67
2022/06/10 07:08:11;;;;;;;14.13;6.13;;;;;;;19.52;76.01;102084.97;5000758;28;20037;-67
2022/06/10 07:10:37;;;;;;;13.32;6.93;;;;;;;19.56;74.61;102081.88;4998358;28;20029;-67
2022/06/10 07:13:02;;;;;;;16.08;6.18;;;;;;;20.59;72.95;102076.06;4982497;28;20102;-67
2022/06/10 07:15:28;;;;;;;19.10;5.63;;;;;;;20.55;73.45;102080.00;4995126;28;20200;-66
2022/06/10 07:17:54;;;;;;;10.40;5.53;;;;;;;20.26;73.38;102086.03;5004412;28;20038;-65
2022/06/10 07:20:31;;;;;;;10.10;5.10;;;;;;;21.27;71.04;102082.69;5001947;28;20029;-65
2022/06/10 07:22:57;;;;;;;12.43;4.75;;;;;;;22.20;68.28;102087.84;4997575;28;20038;-65
2022/06/10 07:25:23;;;;;;;13.45;5.00;;;;;;;22.35;66.59;102088.25;5009997;28;20030;-66
2022/06/10 07:27:52;;;;;;;14.82;4.90;;;;;;;22.16;67.54;102089.13;4980154;28;20073;-66
2022/06/10 07:30:19;;;;;;;13.20;4.63;;;;;;;22.22;66.26;102087.69;5009355;28;20076;-66
2022/06/10 07:32:45;;;;;;;13.20;4.43;;;;;;;21.51;66.59;102085.09;4991927;28;20944;-67
2022/06/10 07:35:12;;;;;;;10.50;4.70;;;;;;;20.99;70.17;102086.16;5011148;28;20117;-66
2022/06/10 07:37:38;;;;;;;12.68;4.57;;;;;;;20.95;70.05;102080.13;5010568;28;20134;-65
2022/06/10 07:40:05;;;;;;;16.38;5.03;;;;;;;20.31;70.89;102091.91;4991065;28;20144;-66
2022/06/10 07:42:30;;;;;;;13.50;5.30;;;;;;;20.39;72.18;102094.00;4990783;28;20060;-67
2022/06/10 07:44:56;;;;;;;8.85;3.70;;;;;;;20.27;70.93;102098.56;4989724;28;20045;-66
2022/06/10 07:47:23;;;;;;;18.77;4.18;;;;;;;19.63;72.10;102096.69;4989722;28;20045;-66
2022/06/10 07:49:48;;;;;;;7.50;3.40;;;;;;;19.55;72.18;102100.97;5008289;28;20684;-66
2022/06/10 07:52:15;;;;;;;11.70;3.40;;;;;;;19.40;73.10;102101.22;5006571;28;20037;-65
2022/06/10 07:54:41;;;;;;;8.23;3.47;;;;;;;19.69;72.47;102097.16;4989937;28;20657;-65
2022/06/10 07:57:08;;;;;;;9.27;3.35;;;;;;;19.28;74.51;102101.34;5006638;28;20063;-66
2022/06/10 07:59:34;;;;;;;8.90;3.80;;;;;;;19.40;73.88;102097.66;5008149;28;20334;-66
2022/06/10 08:01:59;;;;;;;8.85;3.45;;;;;;;19.32;74.35;102094.69;4990513;28;20108;-66
2022/06/10 08:04:25;;;;;;;10.27;4.50;;;;;;;19.15;75.47;102096.91;5008248;28;20034;-67
2022/06/10 08:06:51;;;;;;;12.27;3.88;;;;;;;19.13;74.70;102090.78;4991791;28;20072;-67
2022/06/10 08:09:20;;;;;;;8.43;3.30;;;;;;;19.04;75.54;102094.19;5007640;28;20036;-66
2022/06/10 08:11:48;;;;;;;9.27;3.28;;;;;;;18.89;74.58;102095.41;5008722;28;20083;-67
2022/06/10 08:14:13;;;;;;;8.98;3.33;;;;;;;19.22;73.94;102096.41;5009332;28;20073;-66
2022/06/10 08:16:39;;;;;;;13.07;4.13;;;;;;;19.61;73.62;102097.78;5011084;28;20033;-66
2022/06/10 08:19:05;;;;;;;8.68;3.25;;;;;;;19.91;72.70;102091.69;4998386;28;20045;-66
2022/06/10 08:24:17;;;;;;;13.07;3.05;;;;;;;19.96;71.42;102097.59;5006662;28;20049;-67
2022/06/10 08:26:43;;;;;;;9.30;3.50;;;;;;;20.37;69.60;102090.53;5009442;28;20381;-65
2022/06/10 08:29:08;;;;;;;6.57;2.08;;;;;;;20.54;70.17;102089.16;5001848;28;20618;-66
2022/06/10 08:31:34;;;;;;;6.85;3.08;;;;;;;20.88;68.75;102081.63;4999045;28;20052;-65
2022/06/10 08:34:02;;;;;;;6.72;2.35;;;;;;;21.09;69.20;102084.34;5002020;28;20029;-65
2022/06/10 08:36:29;;;;;;;9.40;2.25;;;;;;;20.88;68.80;102084.34;4993664;28;20121;-67
2022/06/10 08:38:55;;;;;;;10.10;2.22;;;;;;;20.80;68.84;102101.31;4981249;28;20029;-67
2022/06/10 08:41:25;;;;;;;8.73;2.50;;;;;;;21.08;69.08;102083.44;5008221;28;20387;-67
2022/06/10 08:43:56;;;;;;;6.68;2.40;;;;;;;21.65;65.87;102086.59;4982335;28;20462;-65
2022/06/10 08:46:45;;;;;;;7.57;1.90;;;;;;;21.99;67.55;102092.50;5007949;28;20568;-66
2022/06/10 08:49:34;;;;;;;7.03;2.10;;;;;;;22.47;64.41;102078.94;5000222;28;20126;-65
2022/06/10 08:52:38;;;;;;;9.43;2.30;;;;;;;23.19;64.45;102082.97;5007687;28;20038;-68
2022/06/10 08:55:32;;;;;;;15.95;2.42;;;;;;;22.88;61.90;102070.56;4998795;28;20322;-66
2022/06/10 08:58:02;;;;;;;10.30;2.20;;;;;;;22.65;62.47;102083.66;5001151;28;20420;-66
2022/06/10 09:00:31;;;;;;;7.18;2.22;;;;;;;23.36;61.42;102078.59;5005795;28;20937;-66
2022/06/10 09:03:08;;;;;;;7.00;2.45;;;;;;;23.72;60.42;102081.44;5003558;28;20123;-66
2022/06/10 09:05:37;;;;;;;7.93;1.90;;;;;;;23.29;60.90;102074.72;5006767;28;20033;-66
2022/06/10 09:08:07;;;;;;;6.68;2.05;;;;;;;22.70;59.39;102079.50;4995591;28;20069;-66
2022/06/10 09:10:37;;;;;;;8.82;3.05;;;;;;;22.66;60.01;102075.34;4994435;28;20045;-65
2022/06/10 09:13:40;;;;;;;3.42;1.85;;;;;;;23.17;62.78;102075.94;5003820;28;20326;-66
2022/06/10 09:16:29;;;;;;;6.43;2.00;;;;;;;22.88;61.35;102073.28;5006868;28;20045;-67
2022/06/10 09:19:02;;;;;;;8.43;2.40;;;;;;;23.17;61.31;102075.94;4982032;28;20597;-67
2022/06/10 09:21:46;;;;;;;7.35;2.10;;;;;;;23.25;61.83;102076.06;5012696;28;20041;-67
2022/06/10 09:24:22;;;;;;;9.27;2.58;;;;;;;23.35;63.34;102070.59;5012426;28;20104;-66
2022/06/10 09:27:02;;;;;;;9.23;2.30;;;;;;;23.36;61.25;102081.31;5012280;28;20030;-66
2022/06/10 09:29:27;;;;;;;7.43;2.70;;;;;;;23.53;60.52;102079.63;4994661;28;20264;-66
2022/06/10 09:32:08;;;;;;;6.82;2.75;;;;;;;23.40;59.26;102080.00;5012009;28;20791;-65
2022/06/10 09:35:04;;;;;;;8.10;2.17;;;;;;;23.96;58.25;102073.53;5012311;28;20048;-67
2022/06/10 09:37:43;;;;;;;8.38;2.30;;;;;;;24.08;58.29;102076.00;4998881;28;20041;-66
2022/06/10 09:40:38;;;;;;;7.00;2.10;;;;;;;23.78;58.44;102070.75;4994979;28;20041;-67
2022/06/10 09:43:18;;;;;;;8.60;2.42;;;;;;;24.06;59.07;102070.72;5011744;28;20044;-67
2022/06/10 09:46:04;;;;;;;8.90;2.60;;;;;;;23.94;56.19;102061.91;5012159;28;20037;-65
2022/06/10 09:48:55;;;;;;;8.02;2.40;;;;;;;24.63;58.00;102064.94;4993597;28;20045;-65
2022/06/10 09:51:39;;;;;;;10.43;2.03;;;;;;;24.18;56.01;102061.28;5000603;28;20045;-65
2022/06/10 09:54:11;;;;;;;6.57;2.53;;;;;;;24.78;57.15;102060.59;5010504;28;20050;-66
2022/06/10 09:56:55;;;;;;;;;;;;;;;24.22;57.46;102070.88;5006782;28;20423;-64
2022/06/10 09:59:29;;;;;;;7.50;2.30;;;;;;;24.38;57.40;102074.78;5002274;28;19972;-65
2022/06/10 10:01:58;;;;;;;9.30;2.08;;;;;;;24.62;56.46;102064.06;4969885;28;20929;-66
2022/06/10 10:04:45;;;;;;;19.15;3.50;;;;;;;24.32;53.96;102073.50;5011986;28;20041;-66
2022/06/10 10:07:37;;;;;;;13.95;3.20;;;;;;;24.56;57.90;102064.72;5012079;28;20041;-66
2022/06/10 10:10:02;;;;;;;13.15;2.97;;;;;;;23.98;56.50;102060.59;4966584;28;20507;-66
2022/06/10 10:12:33;;;;;;;10.60;2.63;;;;;;;24.94;56.48;102068.88;4992683;28;20037;-66
2022/06/10 10:15:38;;;;;;;10.07;2.38;;;;;;;24.39;54.98;102066.44;5010862;28;20642;-66
2022/06/10 10:18:29;;;;;;;11.48;2.50;;;;;;;24.07;56.62;102061.53;5004038;28;20057;-66
2022/06/10 10:20:58;;;;;;;12.65;2.45;;;;;;;23.93;57.75;102059.34;4998529;28;20049;-65
2022/06/10 10:23:34;;;;;;;7.07;2.38;;;;;;;24.31;56.98;102060.91;4997763;28;20033;-66
2022/06/10 10:26:03;;;;;;;9.15;2.15;;;;;;;24.38;56.25;102063.88;5005206;28;20094;-66
2022/06/10 10:28:35;;;;;;;10.45;2.38;;;;;;;24.69;57.72;102053.38;5011525;28;20034;-65
2022/06/10 10:44:51;;;;;;;10.98;2.92;;;;;;;24.59;55.20;102052.63;5123700;27;20651;-67
2022/06/10 10:47:21;;;;;;;6.70;2.40;;;;;;;24.68;58.16;102051.66;5124744;27;20056;-66
2022/06/10 10:50:07;;;;;;;12.27;2.85;;;;;;;24.52;56.42;102046.94;5128227;27;20035;-67
2022/06/10 10:52:39;;;;;;;8.38;2.45;;;;;;;24.62;56.63;102053.16;5124699;27;21072;-66
2022/06/10 10:55:11;;;;;;;6.80;3.00;;;;;;;24.52;56.09;102042.34;5119116;27;20043;-67
2022/06/10 10:57:40;;;;;;;8.90;3.90;;;;;;;24.29;57.59;102054.72;5122096;27;20106;-66
2022/06/10 11:00:23;;;;;;;10.95;3.25;;;;;;;23.93;60.41;102054.75;5127702;27;20046;-66
2022/06/10 11:02:51;;;;;;;12.40;3.25;;;;;;;24.28;59.00;102053.03;5107699;27;20117;-66
2022/06/10 11:05:37;;;;;;;12.32;3.25;;;;;;;23.82;57.02;102054.13;5124652;27;20051;-66
2022/06/10 11:08:08;;;;;;;7.93;2.35;;;;;;;24.58;57.50;102050.91;5122891;27;20059;-66
2022/06/10 11:10:39;;;;;;;13.63;2.50;;;;;;;25.13;56.64;102054.19;5105617;27;20049;-66
2022/06/10 11:13:07;;;;;;;8.55;3.28;;;;;;;25.26;54.37;102040.09;5122264;27;20047;-67
2022/06/10 11:15:34;;;;;;;13.40;2.88;;;;;;;24.49;53.60;102053.56;5124092;27;20201;-66
2022/06/10 11:18:01;;;;;;;7.50;2.03;;;;;;;24.65;54.91;102050.13;5125251;27;20811;-66
2022/06/10 11:20:36;;;;;;;9.43;2.47;;;;;;;24.98;54.54;102044.84;5120176;27;20035;-67
2022/06/10 11:23:24;;;;;;;7.28;2.47;;;;;;;24.68;56.40;102051.66;5118146;27;20130;-66
2022/06/10 11:26:17;;;;;;;14.98;2.78;;;;;;;25.28;55.27;102047.09;5091575;28;20039;-66
2022/06/10 11:28:44;;;;;;;13.00;2.83;;;;;;;25.04;55.49;102044.19;5090838;27;20755;-67
2022/06/10 11:31:38;;;;;;;6.75;2.92;;;;;;;24.88;54.29;102052.31;5106333;28;20062;-67
2022/06/10 11:34:05;;;;;;;7.47;2.53;;;;;;;24.92;55.41;102049.09;5103612;27;20062;-66
2022/06/10 11:36:43;;;;;;;12.73;2.72;;;;;;;24.18;56.57;102053.09;5118990;22;20299;-72
2022/06/10 11:39:22;;;;;;;9.77;3.20;;;;;;;23.81;56.83;102050.53;5073262;22;20060;-64
2022/06/10 11:42:19;;;;;;;9.35;2.40;;;;;;;23.69;57.62;102054.47;5043614;28;20036;-64
2022/06/10 11:44:47;;;;;;;12.70;2.92;;;;;;;23.82;57.78;102054.97;5047268;28;20482;-64
2022/06/10 11:47:30;;;;;;;12.85;2.75;;;;;;;23.84;58.46;102052.09;5039176;28;20044;-64
2022/06/10 11:50:09;;;;;;;9.73;3.38;;;;;;;23.30;58.56;102053.84;5052831;28;20056;-65
2022/06/10 11:52:49;;;;;;;11.52;3.28;;;;;;;23.77;57.95;102054.59;5045627;28;20048;-64
2022/06/10 11:55:22;;;;;;;8.48;2.53;;;;;;;23.64;58.56;102051.38;5050557;28;20036;-64
2022/06/10 12:01:19;;;;;;;13.20;3.90;;;;;;;23.40;59.72;102055.50;5043640;28;20040;-64
2022/06/10 12:03:54;;;;;;;11.50;2.90;;;;;;;23.38;58.77;102062.09;5036916;28;20077;-64
2022/06/10 12:06:31;;;;;;;12.35;3.90;;;;;;;23.40;59.66;102051.94;5046220;28;20079;-64
2022/06/10 12:09:00;;;;;;;7.30;3.25;;;;;;;23.85;59.34;102053.81;5041645;28;20108;-64